sensor_id;sensor_type;location;lat;lon;timestamp;P1;durP1;ratioP1;P2;durP2;ratioP2
3347;SDS011;1687;49.540;8.574;2023-02-28T00:00:39;2.13;;;1.10;;
3347;SDS011;1687;49.540;8.574;2023-02-28T00:03:05;2.97;;;1.17;;
3347;SDS011;1687;49.540;8.574;2023-02-28T00:05:31;2.33;;;1.50;;
3347;SDS011;1687;49.540;8.574;2023-02-28T00:07:57;2.57;;;1.10;;
3347;SDS011;1687;49.540;8.574;2023-02-28T00:10:24;3.10;;;1.80;;
3347;SDS011;1687;49.540;8.574;2023-02-28T00:12:53;2.73;;;1.80;;
3347;SDS011;1687;49.540;8.574;2023-02-28T00:15:21;2.53;;;1.43;;
3347;SDS011;1687;49.540;8.574;2023-02-28T00:17:48;4.30;;;2.27;;
3347;SDS011;1687;49.540;8.574;2023-02-28T00:20:14;2.47;;;1.20;;
3347;SDS011;1687;49.540;8.574;2023-02-28T00:22:41;2.77;;;1.40;;
3347;SDS011;1687;49.540;8.574;2023-02-28T00:25:13;1.40;;;0.93;;
3347;SDS011;1687;49.540;8.574;2023-02-28T00:27:42;3.50;;;1.70;;
3347;SDS011;1687;49.540;8.574;2023-02-28T00:30:09;4.60;;;1.67;;
3347;SDS011;1687;49.540;8.574;2023-02-28T00:32:42;2.70;;;1.63;;
3347;SDS011;1687;49.540;8.574;2023-02-28T00:35:08;3.40;;;1.80;;
3347;SDS011;1687;49.540;8.574;2023-02-28T00:37:35;5.20;;;1.90;;
3347;SDS011;1687;49.540;8.574;2023-02-28T00:40:02;5.10;;;1.40;;
3347;SDS011;1687;49.540;8.574;2023-02-28T00:42:32;2.30;;;1.40;;
3347;SDS011;1687;49.540;8.574;2023-02-28T00:44:59;4.07;;;1.77;;
3347;SDS011;1687;49.540;8.574;2023-02-28T00:47:25;4.37;;;1.63;;
3347;SDS011;1687;49.540;8.574;2023-02-28T00:49:51;3.97;;;2.00;;
3347;SDS011;1687;49.540;8.574;2023-02-28T00:52:16;5.93;;;1.77;;
3347;SDS011;1687;49.540;8.574;2023-02-28T00:54:42;3.13;;;1.73;;
3347;SDS011;1687;49.540;8.574;2023-02-28T00:57:08;2.30;;;1.77;;
3347;SDS011;1687;49.540;8.574;2023-02-28T00:59:33;1.73;;;1.33;;
3347;SDS011;1687;49.540;8.574;2023-02-28T01:01:59;4.20;;;1.80;;
3347;SDS011;1687;49.540;8.574;2023-02-28T01:04:25;2.60;;;1.90;;
3347;SDS011;1687;49.540;8.574;2023-02-28T01:06:51;2.17;;;1.27;;
3347;SDS011;1687;49.540;8.574;2023-02-28T01:09:16;6.23;;;1.83;;
3347;SDS011;1687;49.540;8.574;2023-02-28T01:11:42;7.30;;;2.90;;
3347;SDS011;1687;49.540;8.574;2023-02-28T01:14:09;2.00;;;1.20;;
3347;SDS011;1687;49.540;8.574;2023-02-28T01:16:39;2.70;;;1.50;;
3347;SDS011;1687;49.540;8.574;2023-02-28T01:19:04;4.60;;;2.10;;
3347;SDS011;1687;49.540;8.574;2023-02-28T01:21:30;2.40;;;1.80;;
3347;SDS011;1687;49.540;8.574;2023-02-28T01:23:56;2.40;;;1.73;;
3347;SDS011;1687;49.540;8.574;2023-02-28T01:26:23;6.43;;;3.30;;
3347;SDS011;1687;49.540;8.574;2023-02-28T01:28:50;5.87;;;2.50;;
3347;SDS011;1687;49.540;8.574;2023-02-28T01:31:17;5.77;;;3.10;;
3347;SDS011;1687;49.540;8.574;2023-02-28T01:33:43;4.50;;;1.93;;
3347;SDS011;1687;49.540;8.574;2023-02-28T01:36:13;3.10;;;1.73;;
3347;SDS011;1687;49.540;8.574;2023-02-28T01:38:46;4.43;;;1.80;;
3347;SDS011;1687;49.540;8.574;2023-02-28T01:41:14;3.23;;;1.50;;
3347;SDS011;1687;49.540;8.574;2023-02-28T01:46:10;6.13;;;3.07;;
3347;SDS011;1687;49.540;8.574;2023-02-28T01:48:38;4.13;;;1.93;;
3347;SDS011;1687;49.540;8.574;2023-02-28T01:51:56;2.20;;;1.80;;
3347;SDS011;1687;49.540;8.574;2023-02-28T01:54:21;6.00;;;2.33;;
3347;SDS011;1687;49.540;8.574;2023-02-28T01:56:55;7.13;;;2.67;;
3347;SDS011;1687;49.540;8.574;2023-02-28T01:59:38;3.70;;;2.13;;
3347;SDS011;1687;49.540;8.574;2023-02-28T02:02:14;2.17;;;1.40;;
3347;SDS011;1687;49.540;8.574;2023-02-28T02:04:45;7.33;;;3.23;;
3347;SDS011;1687;49.540;8.574;2023-02-28T02:07:22;2.40;;;1.80;;
3347;SDS011;1687;49.540;8.574;2023-02-28T02:09:50;3.23;;;2.23;;
3347;SDS011;1687;49.540;8.574;2023-02-28T02:12:37;3.73;;;1.73;;
3347;SDS011;1687;49.540;8.574;2023-02-28T02:15:47;4.10;;;1.90;;
3347;SDS011;1687;49.540;8.574;2023-02-28T02:27:05;5.27;;;1.73;;
3347;SDS011;1687;49.540;8.574;2023-02-28T02:29:59;3.87;;;2.20;;
3347;SDS011;1687;49.540;8.574;2023-02-28T02:32:44;4.73;;;2.10;;
3347;SDS011;1687;49.540;8.574;2023-02-28T02:35:55;2.60;;;1.57;;
3347;SDS011;1687;49.540;8.574;2023-02-28T02:38:36;4.60;;;2.83;;
3347;SDS011;1687;49.540;8.574;2023-02-28T02:47:24;3.90;;;2.20;;
3347;SDS011;1687;49.540;8.574;2023-02-28T02:49:54;2.90;;;1.93;;
3347;SDS011;1687;49.540;8.574;2023-02-28T02:52:25;3.20;;;1.73;;
3347;SDS011;1687;49.540;8.574;2023-02-28T02:55:02;5.90;;;2.80;;
3347;SDS011;1687;49.540;8.574;2023-02-28T02:57:32;5.40;;;1.93;;
3347;SDS011;1687;49.540;8.574;2023-02-28T03:00:03;5.17;;;1.90;;
3347;SDS011;1687;49.540;8.574;2023-02-28T03:02:33;4.60;;;1.93;;
3347;SDS011;1687;49.540;8.574;2023-02-28T03:05:03;11.53;;;3.47;;
3347;SDS011;1687;49.540;8.574;2023-02-28T03:07:37;3.80;;;2.73;;
3347;SDS011;1687;49.540;8.574;2023-02-28T03:10:25;3.37;;;2.20;;
3347;SDS011;1687;49.540;8.574;2023-02-28T03:13:00;3.83;;;2.63;;
3347;SDS011;1687;49.540;8.574;2023-02-28T03:16:10;3.53;;;2.40;;
3347;SDS011;1687;49.540;8.574;2023-02-28T03:21:40;4.10;;;1.70;;
3347;SDS011;1687;49.540;8.574;2023-02-28T03:24:24;5.60;;;1.83;;
3347;SDS011;1687;49.540;8.574;2023-02-28T03:26:57;3.93;;;2.63;;
3347;SDS011;1687;49.540;8.574;2023-02-28T03:29:33;5.07;;;2.40;;
3347;SDS011;1687;49.540;8.574;2023-02-28T03:32:14;4.87;;;2.57;;
3347;SDS011;1687;49.540;8.574;2023-02-28T03:35:36;5.63;;;1.83;;
3347;SDS011;1687;49.540;8.574;2023-02-28T03:37:47;10.60;;;3.60;;
3347;SDS011;1687;49.540;8.574;2023-02-28T03:40:23;5.00;;;2.70;;
3347;SDS011;1687;49.540;8.574;2023-02-28T03:42:55;4.83;;;2.70;;
3347;SDS011;1687;49.540;8.574;2023-02-28T03:45:28;6.13;;;2.80;;
3347;SDS011;1687;49.540;8.574;2023-02-28T03:48:00;2.63;;;1.73;;
3347;SDS011;1687;49.540;8.574;2023-02-28T03:50:36;8.87;;;3.30;;
3347;SDS011;1687;49.540;8.574;2023-02-28T03:53:10;5.30;;;2.23;;
3347;SDS011;1687;49.540;8.574;2023-02-28T03:55:47;5.43;;;3.10;;
3347;SDS011;1687;49.540;8.574;2023-02-28T03:58:24;4.00;;;2.50;;
3347;SDS011;1687;49.540;8.574;2023-02-28T04:01:23;3.00;;;2.40;;
3347;SDS011;1687;49.540;8.574;2023-02-28T04:03:54;3.93;;;2.40;;
3347;SDS011;1687;49.540;8.574;2023-02-28T04:06:21;7.37;;;2.10;;
3347;SDS011;1687;49.540;8.574;2023-02-28T04:08:48;7.43;;;2.80;;
3347;SDS011;1687;49.540;8.574;2023-02-28T04:13:46;11.23;;;3.40;;
3347;SDS011;1687;49.540;8.574;2023-02-28T04:16:11;6.00;;;2.33;;
3347;SDS011;1687;49.540;8.574;2023-02-28T04:18:38;7.40;;;2.70;;
3347;SDS011;1687;49.540;8.574;2023-02-28T04:21:05;3.40;;;2.00;;
3347;SDS011;1687;49.540;8.574;2023-02-28T04:23:32;6.93;;;3.50;;
3347;SDS011;1687;49.540;8.574;2023-02-28T04:25:58;4.63;;;2.67;;
3347;SDS011;1687;49.540;8.574;2023-02-28T04:28:24;3.83;;;2.47;;
3347;SDS011;1687;49.540;8.574;2023-02-28T04:30:57;4.70;;;2.47;;
3347;SDS011;1687;49.540;8.574;2023-02-28T04:33:25;4.90;;;2.53;;
3347;SDS011;1687;49.540;8.574;2023-02-28T04:36:03;4.47;;;2.57;;
3347;SDS011;1687;49.540;8.574;2023-02-28T04:38:33;3.50;;;1.50;;
3347;SDS011;1687;49.540;8.574;2023-02-28T04:41:01;3.40;;;2.00;;
3347;SDS011;1687;49.540;8.574;2023-02-28T04:43:27;6.50;;;2.63;;
3347;SDS011;1687;49.540;8.574;2023-02-28T04:45:55;6.47;;;2.80;;
3347;SDS011;1687;49.540;8.574;2023-02-28T04:48:25;6.87;;;1.67;;
3347;SDS011;1687;49.540;8.574;2023-02-28T04:50:53;5.73;;;1.83;;
3347;SDS011;1687;49.540;8.574;2023-02-28T04:53:19;6.53;;;2.57;;
3347;SDS011;1687;49.540;8.574;2023-02-28T04:55:45;6.90;;;2.77;;
3347;SDS011;1687;49.540;8.574;2023-02-28T04:58:12;2.90;;;1.80;;
3347;SDS011;1687;49.540;8.574;2023-02-28T05:00:38;2.83;;;1.83;;
3347;SDS011;1687;49.540;8.574;2023-02-28T05:03:04;3.20;;;2.07;;
3347;SDS011;1687;49.540;8.574;2023-02-28T05:05:30;4.43;;;2.70;;
3347;SDS011;1687;49.540;8.574;2023-02-28T05:07:55;2.07;;;1.20;;
3347;SDS011;1687;49.540;8.574;2023-02-28T05:10:24;5.20;;;2.80;;
3347;SDS011;1687;49.540;8.574;2023-02-28T05:12:50;5.63;;;2.70;;
3347;SDS011;1687;49.540;8.574;2023-02-28T05:15:16;7.00;;;3.10;;
3347;SDS011;1687;49.540;8.574;2023-02-28T05:17:42;4.60;;;2.17;;
3347;SDS011;1687;49.540;8.574;2023-02-28T05:20:08;5.77;;;2.17;;
3347;SDS011;1687;49.540;8.574;2023-02-28T05:22:38;14.90;;;4.47;;
3347;SDS011;1687;49.540;8.574;2023-02-28T05:25:08;4.57;;;2.60;;
3347;SDS011;1687;49.540;8.574;2023-02-28T05:27:41;6.23;;;2.23;;
3347;SDS011;1687;49.540;8.574;2023-02-28T05:30:07;3.83;;;2.10;;
3347;SDS011;1687;49.540;8.574;2023-02-28T05:32:35;4.17;;;2.20;;
3347;SDS011;1687;49.540;8.574;2023-02-28T05:35:02;4.53;;;2.17;;
3347;SDS011;1687;49.540;8.574;2023-02-28T05:37:29;2.80;;;1.70;;
3347;SDS011;1687;49.540;8.574;2023-02-28T05:39:55;3.80;;;1.83;;
3347;SDS011;1687;49.540;8.574;2023-02-28T05:42:20;7.30;;;2.70;;
3347;SDS011;1687;49.540;8.574;2023-02-28T05:44:46;3.00;;;2.20;;
3347;SDS011;1687;49.540;8.574;2023-02-28T05:47:12;2.03;;;1.33;;
3347;SDS011;1687;49.540;8.574;2023-02-28T05:49:40;2.70;;;1.53;;
3347;SDS011;1687;49.540;8.574;2023-02-28T05:52:06;10.30;;;3.13;;
3347;SDS011;1687;49.540;8.574;2023-02-28T05:54:32;5.33;;;2.30;;
3347;SDS011;1687;49.540;8.574;2023-02-28T05:56:58;4.10;;;2.00;;
3347;SDS011;1687;49.540;8.574;2023-02-28T05:59:24;3.03;;;1.83;;
3347;SDS011;1687;49.540;8.574;2023-02-28T06:01:50;3.73;;;2.00;;
3347;SDS011;1687;49.540;8.574;2023-02-28T06:04:18;3.80;;;2.50;;
3347;SDS011;1687;49.540;8.574;2023-02-28T06:06:48;4.00;;;2.67;;
3347;SDS011;1687;49.540;8.574;2023-02-28T06:09:15;8.00;;;2.47;;
3347;SDS011;1687;49.540;8.574;2023-02-28T06:11:42;7.67;;;2.77;;
3347;SDS011;1687;49.540;8.574;2023-02-28T06:14:11;3.93;;;2.07;;
3347;SDS011;1687;49.540;8.574;2023-02-28T06:16:41;6.27;;;2.67;;
3347;SDS011;1687;49.540;8.574;2023-02-28T06:19:08;8.87;;;2.30;;
3347;SDS011;1687;49.540;8.574;2023-02-28T06:21:34;7.17;;;2.83;;
3347;SDS011;1687;49.540;8.574;2023-02-28T06:24:01;5.40;;;2.60;;
3347;SDS011;1687;49.540;8.574;2023-02-28T06:26:27;4.77;;;2.33;;
3347;SDS011;1687;49.540;8.574;2023-02-28T06:28:53;7.53;;;3.50;;
3347;SDS011;1687;49.540;8.574;2023-02-28T06:31:20;2.33;;;1.90;;
3347;SDS011;1687;49.540;8.574;2023-02-28T06:33:47;4.67;;;2.07;;
3347;SDS011;1687;49.540;8.574;2023-02-28T06:36:13;8.40;;;3.57;;
3347;SDS011;1687;49.540;8.574;2023-02-28T06:38:41;7.13;;;2.27;;
3347;SDS011;1687;49.540;8.574;2023-02-28T06:41:08;4.67;;;2.30;;
3347;SDS011;1687;49.540;8.574;2023-02-28T06:43:35;9.80;;;4.87;;
3347;SDS011;1687;49.540;8.574;2023-02-28T06:46:06;5.50;;;3.00;;
3347;SDS011;1687;49.540;8.574;2023-02-28T06:48:35;12.00;;;3.90;;
3347;SDS011;1687;49.540;8.574;2023-02-28T06:51:01;6.00;;;3.10;;
3347;SDS011;1687;49.540;8.574;2023-02-28T06:53:29;5.63;;;3.37;;
3347;SDS011;1687;49.540;8.574;2023-02-28T06:55:55;5.90;;;3.67;;
3347;SDS011;1687;49.540;8.574;2023-02-28T06:58:21;10.07;;;4.67;;
3347;SDS011;1687;49.540;8.574;2023-02-28T07:00:49;7.03;;;4.53;;
3347;SDS011;1687;49.540;8.574;2023-02-28T07:03:17;10.90;;;6.83;;
3347;SDS011;1687;49.540;8.574;2023-02-28T07:05:43;2.87;;;1.93;;
3347;SDS011;1687;49.540;8.574;2023-02-28T07:08:10;6.10;;;3.47;;
3347;SDS011;1687;49.540;8.574;2023-02-28T07:10:39;3.93;;;2.53;;
3347;SDS011;1687;49.540;8.574;2023-02-28T07:13:05;6.43;;;2.70;;
3347;SDS011;1687;49.540;8.574;2023-02-28T07:15:33;4.53;;;2.43;;
3347;SDS011;1687;49.540;8.574;2023-02-28T07:18:00;6.90;;;3.90;;
3347;SDS011;1687;49.540;8.574;2023-02-28T07:20:26;2.07;;;1.70;;
3347;SDS011;1687;49.540;8.574;2023-02-28T07:22:51;6.10;;;2.53;;
3347;SDS011;1687;49.540;8.574;2023-02-28T07:25:27;6.93;;;3.20;;
3347;SDS011;1687;49.540;8.574;2023-02-28T07:27:54;5.07;;;2.53;;
3347;SDS011;1687;49.540;8.574;2023-02-28T07:30:21;7.97;;;2.80;;
3347;SDS011;1687;49.540;8.574;2023-02-28T07:32:47;4.83;;;2.20;;
3347;SDS011;1687;49.540;8.574;2023-02-28T07:35:13;8.83;;;3.37;;
3347;SDS011;1687;49.540;8.574;2023-02-28T07:37:40;12.53;;;4.37;;
3347;SDS011;1687;49.540;8.574;2023-02-28T07:40:07;4.93;;;2.77;;
3347;SDS011;1687;49.540;8.574;2023-02-28T07:42:39;5.40;;;3.00;;
3347;SDS011;1687;49.540;8.574;2023-02-28T07:45:06;7.17;;;3.07;;
3347;SDS011;1687;49.540;8.574;2023-02-28T07:47:33;5.93;;;3.80;;
3347;SDS011;1687;49.540;8.574;2023-02-28T07:49:59;5.30;;;3.70;;
3347;SDS011;1687;49.540;8.574;2023-02-28T07:52:25;10.73;;;4.23;;
3347;SDS011;1687;49.540;8.574;2023-02-28T07:54:51;7.47;;;2.77;;
3347;SDS011;1687;49.540;8.574;2023-02-28T07:57:17;6.33;;;3.80;;
3347;SDS011;1687;49.540;8.574;2023-02-28T07:59:43;7.57;;;3.10;;
3347;SDS011;1687;49.540;8.574;2023-02-28T08:02:12;4.57;;;3.13;;
3347;SDS011;1687;49.540;8.574;2023-02-28T08:04:40;3.90;;;2.20;;
3347;SDS011;1687;49.540;8.574;2023-02-28T08:07:06;4.20;;;2.90;;
3347;SDS011;1687;49.540;8.574;2023-02-28T08:09:32;8.10;;;4.27;;
3347;SDS011;1687;49.540;8.574;2023-02-28T08:11:59;9.33;;;4.40;;
3347;SDS011;1687;49.540;8.574;2023-02-28T08:14:25;11.60;;;4.23;;
3347;SDS011;1687;49.540;8.574;2023-02-28T08:16:50;6.87;;;3.47;;
3347;SDS011;1687;49.540;8.574;2023-02-28T08:19:16;10.80;;;3.13;;
3347;SDS011;1687;49.540;8.574;2023-02-28T08:21:42;5.50;;;3.20;;
3347;SDS011;1687;49.540;8.574;2023-02-28T08:24:07;8.10;;;3.20;;
3347;SDS011;1687;49.540;8.574;2023-02-28T08:26:33;3.37;;;2.30;;
3347;SDS011;1687;49.540;8.574;2023-02-28T08:28:59;6.77;;;3.70;;
3347;SDS011;1687;49.540;8.574;2023-02-28T08:31:24;5.43;;;2.77;;
3347;SDS011;1687;49.540;8.574;2023-02-28T08:33:50;7.70;;;4.20;;
3347;SDS011;1687;49.540;8.574;2023-02-28T08:36:18;9.93;;;4.80;;
3347;SDS011;1687;49.540;8.574;2023-02-28T08:38:45;7.30;;;3.27;;
3347;SDS011;1687;49.540;8.574;2023-02-28T08:41:11;13.63;;;4.93;;
3347;SDS011;1687;49.540;8.574;2023-02-28T08:43:38;4.90;;;2.87;;
3347;SDS011;1687;49.540;8.574;2023-02-28T08:46:05;6.37;;;3.70;;
3347;SDS011;1687;49.540;8.574;2023-02-28T08:48:33;9.80;;;4.00;;
3347;SDS011;1687;49.540;8.574;2023-02-28T08:51:04;5.87;;;3.50;;
3347;SDS011;1687;49.540;8.574;2023-02-28T08:53:36;14.30;;;3.77;;
3347;SDS011;1687;49.540;8.574;2023-02-28T08:56:05;16.87;;;4.50;;
3347;SDS011;1687;49.540;8.574;2023-02-28T08:58:34;10.53;;;3.20;;
3347;SDS011;1687;49.540;8.574;2023-02-28T09:01:00;12.90;;;4.10;;
3347;SDS011;1687;49.540;8.574;2023-02-28T09:03:33;8.17;;;3.43;;
3347;SDS011;1687;49.540;8.574;2023-02-28T09:05:59;9.07;;;4.93;;
3347;SDS011;1687;49.540;8.574;2023-02-28T09:08:26;8.17;;;4.27;;
3347;SDS011;1687;49.540;8.574;2023-02-28T09:10:55;7.00;;;3.67;;
3347;SDS011;1687;49.540;8.574;2023-02-28T09:13:22;14.43;;;4.73;;
3347;SDS011;1687;49.540;8.574;2023-02-28T09:15:50;7.30;;;3.40;;
3347;SDS011;1687;49.540;8.574;2023-02-28T09:18:16;7.80;;;4.27;;
3347;SDS011;1687;49.540;8.574;2023-02-28T09:20:41;9.50;;;4.40;;
3347;SDS011;1687;49.540;8.574;2023-02-28T09:23:09;7.13;;;3.70;;
3347;SDS011;1687;49.540;8.574;2023-02-28T09:25:37;4.80;;;2.50;;
3347;SDS011;1687;49.540;8.574;2023-02-28T09:28:10;6.00;;;3.63;;
3347;SDS011;1687;49.540;8.574;2023-02-28T09:30:36;5.37;;;3.90;;
3347;SDS011;1687;49.540;8.574;2023-02-28T09:33:02;9.13;;;4.70;;
3347;SDS011;1687;49.540;8.574;2023-02-28T09:35:28;7.07;;;3.20;;
3347;SDS011;1687;49.540;8.574;2023-02-28T09:37:55;9.60;;;4.27;;
3347;SDS011;1687;49.540;8.574;2023-02-28T09:40:23;8.00;;;3.43;;
3347;SDS011;1687;49.540;8.574;2023-02-28T09:42:51;11.03;;;4.73;;
3347;SDS011;1687;49.540;8.574;2023-02-28T09:47:48;7.10;;;3.33;;
3347;SDS011;1687;49.540;8.574;2023-02-28T09:52:51;7.57;;;4.10;;
3347;SDS011;1687;49.540;8.574;2023-02-28T09:55:27;12.17;;;5.03;;
3347;SDS011;1687;49.540;8.574;2023-02-28T09:58:01;5.80;;;2.73;;
3347;SDS011;1687;49.540;8.574;2023-02-28T10:00:32;10.53;;;5.20;;
3347;SDS011;1687;49.540;8.574;2023-02-28T10:11:23;12.70;;;5.30;;
3347;SDS011;1687;49.540;8.574;2023-02-28T10:13:58;10.03;;;4.73;;
3347;SDS011;1687;49.540;8.574;2023-02-28T10:22:19;7.70;;;4.70;;
3347;SDS011;1687;49.540;8.574;2023-02-28T10:25:17;8.27;;;3.93;;
3347;SDS011;1687;49.540;8.574;2023-02-28T10:27:50;9.53;;;4.10;;
3347;SDS011;1687;49.540;8.574;2023-02-28T10:30:22;9.83;;;4.60;;
3347;SDS011;1687;49.540;8.574;2023-02-28T10:32:51;10.50;;;4.50;;
3347;SDS011;1687;49.540;8.574;2023-02-28T10:35:21;12.27;;;4.83;;
3347;SDS011;1687;49.540;8.574;2023-02-28T10:37:51;7.93;;;4.13;;
3347;SDS011;1687;49.540;8.574;2023-02-28T10:42:55;10.73;;;4.77;;
3347;SDS011;1687;49.540;8.574;2023-02-28T10:45:23;10.67;;;3.90;;
3347;SDS011;1687;49.540;8.574;2023-02-28T10:47:58;11.80;;;4.47;;
3347;SDS011;1687;49.540;8.574;2023-02-28T10:50:42;7.40;;;4.70;;
3347;SDS011;1687;49.540;8.574;2023-02-28T11:03:56;12.93;;;4.70;;
3347;SDS011;1687;49.540;8.574;2023-02-28T11:06:23;13.20;;;6.00;;
3347;SDS011;1687;49.540;8.574;2023-02-28T11:08:58;8.07;;;4.50;;
3347;SDS011;1687;49.540;8.574;2023-02-28T11:11:29;5.47;;;3.73;;
3347;SDS011;1687;49.540;8.574;2023-02-28T11:14:14;8.43;;;5.00;;
3347;SDS011;1687;49.540;8.574;2023-02-28T11:16:46;10.97;;;5.53;;
3347;SDS011;1687;49.540;8.574;2023-02-28T11:19:46;9.10;;;5.50;;
3347;SDS011;1687;49.540;8.574;2023-02-28T11:22:11;8.67;;;4.80;;
3347;SDS011;1687;49.540;8.574;2023-02-28T11:24:50;9.53;;;5.03;;
3347;SDS011;1687;49.540;8.574;2023-02-28T11:27:42;11.60;;;4.33;;
3347;SDS011;1687;49.540;8.574;2023-02-28T11:30:24;8.00;;;3.87;;
3347;SDS011;1687;49.540;8.574;2023-02-28T11:32:56;16.23;;;5.27;;
3347;SDS011;1687;49.540;8.574;2023-02-28T11:35:56;16.20;;;5.73;;
3347;SDS011;1687;49.540;8.574;2023-02-28T11:38:14;15.27;;;5.67;;
3347;SDS011;1687;49.540;8.574;2023-02-28T11:46:30;10.87;;;4.90;;
3347;SDS011;1687;49.540;8.574;2023-02-28T12:12:19;13.30;;;5.43;;
3347;SDS011;1687;49.540;8.574;2023-02-28T12:26:49;9.20;;;4.93;;
3347;SDS011;1687;49.540;8.574;2023-02-28T12:29:21;15.17;;;5.83;;
3347;SDS011;1687;49.540;8.574;2023-02-28T12:32:03;14.57;;;5.00;;
3347;SDS011;1687;49.540;8.574;2023-02-28T12:34:47;11.97;;;5.00;;
3347;SDS011;1687;49.540;8.574;2023-02-28T12:37:19;7.70;;;4.37;;
3347;SDS011;1687;49.540;8.574;2023-02-28T12:39:55;10.10;;;4.83;;
3347;SDS011;1687;49.540;8.574;2023-02-28T12:42:31;10.73;;;5.67;;
3347;SDS011;1687;49.540;8.574;2023-02-28T12:45:09;10.40;;;5.13;;
3347;SDS011;1687;49.540;8.574;2023-02-28T12:47:45;14.20;;;6.83;;
3347;SDS011;1687;49.540;8.574;2023-02-28T12:50:17;13.90;;;6.47;;
3347;SDS011;1687;49.540;8.574;2023-02-28T13:04:32;9.23;;;5.23;;
3347;SDS011;1687;49.540;8.574;2023-02-28T13:07:15;13.10;;;5.10;;
3347;SDS011;1687;49.540;8.574;2023-02-28T13:10:11;11.70;;;5.50;;
3347;SDS011;1687;49.540;8.574;2023-02-28T13:12:42;12.87;;;5.63;;
3347;SDS011;1687;49.540;8.574;2023-02-28T13:15:18;11.63;;;6.27;;
3347;SDS011;1687;49.540;8.574;2023-02-28T13:17:50;16.17;;;6.37;;
3347;SDS011;1687;49.540;8.574;2023-02-28T13:20:29;8.27;;;4.97;;
3347;SDS011;1687;49.540;8.574;2023-02-28T13:23:01;11.70;;;5.93;;
3347;SDS011;1687;49.540;8.574;2023-02-28T13:27:59;33.53;;;5.27;;
3347;SDS011;1687;49.540;8.574;2023-02-28T13:36:36;9.97;;;5.17;;
3347;SDS011;1687;49.540;8.574;2023-02-28T13:38:43;23.70;;;5.23;;
3347;SDS011;1687;49.540;8.574;2023-02-28T13:44:03;15.90;;;6.73;;
3347;SDS011;1687;49.540;8.574;2023-02-28T13:46:38;9.77;;;5.10;;
3347;SDS011;1687;49.540;8.574;2023-02-28T13:49:31;17.30;;;6.40;;
3347;SDS011;1687;49.540;8.574;2023-02-28T13:57:42;11.30;;;5.60;;
3347;SDS011;1687;49.540;8.574;2023-02-28T14:06:47;11.80;;;5.20;;
3347;SDS011;1687;49.540;8.574;2023-02-28T14:09:23;9.43;;;5.33;;
3347;SDS011;1687;49.540;8.574;2023-02-28T14:11:53;13.67;;;5.80;;
3347;SDS011;1687;49.540;8.574;2023-02-28T14:17:07;10.87;;;4.70;;
3347;SDS011;1687;49.540;8.574;2023-02-28T14:19:39;13.80;;;6.37;;
3347;SDS011;1687;49.540;8.574;2023-02-28T14:28:06;10.33;;;5.83;;
3347;SDS011;1687;49.540;8.574;2023-02-28T14:31:09;10.87;;;5.93;;
3347;SDS011;1687;49.540;8.574;2023-02-28T14:36:52;14.60;;;6.90;;
3347;SDS011;1687;49.540;8.574;2023-02-28T14:39:22;19.67;;;6.13;;
3347;SDS011;1687;49.540;8.574;2023-02-28T14:41:50;16.17;;;5.83;;
3347;SDS011;1687;49.540;8.574;2023-02-28T14:44:23;14.20;;;6.10;;
3347;SDS011;1687;49.540;8.574;2023-02-28T14:46:52;11.60;;;5.63;;
3347;SDS011;1687;49.540;8.574;2023-02-28T14:49:30;15.80;;;6.53;;
3347;SDS011;1687;49.540;8.574;2023-02-28T14:54:38;12.70;;;6.20;;
3347;SDS011;1687;49.540;8.574;2023-02-28T14:57:04;22.07;;;8.00;;
3347;SDS011;1687;49.540;8.574;2023-02-28T14:59:32;16.37;;;7.07;;
3347;SDS011;1687;49.540;8.574;2023-02-28T15:05:10;12.30;;;6.10;;
3347;SDS011;1687;49.540;8.574;2023-02-28T15:08:00;16.97;;;7.90;;
3347;SDS011;1687;49.540;8.574;2023-02-28T15:10:42;14.33;;;5.70;;
3347;SDS011;1687;49.540;8.574;2023-02-28T15:13:15;12.60;;;6.07;;
3347;SDS011;1687;49.540;8.574;2023-02-28T15:15:50;12.50;;;6.53;;
3347;SDS011;1687;49.540;8.574;2023-02-28T15:18:42;13.47;;;6.83;;
3347;SDS011;1687;49.540;8.574;2023-02-28T15:21:23;12.40;;;6.87;;
3347;SDS011;1687;49.540;8.574;2023-02-28T15:23:54;11.57;;;6.83;;
3347;SDS011;1687;49.540;8.574;2023-02-28T15:26:26;16.00;;;7.57;;
3347;SDS011;1687;49.540;8.574;2023-02-28T15:29:00;14.83;;;8.40;;
3347;SDS011;1687;49.540;8.574;2023-02-28T15:31:39;15.20;;;7.90;;
3347;SDS011;1687;49.540;8.574;2023-02-28T15:34:18;10.80;;;6.00;;
3347;SDS011;1687;49.540;8.574;2023-02-28T15:36:47;14.83;;;6.87;;
3347;SDS011;1687;49.540;8.574;2023-02-28T15:39:26;20.10;;;8.10;;
3347;SDS011;1687;49.540;8.574;2023-02-28T15:42:09;14.33;;;7.10;;
3347;SDS011;1687;49.540;8.574;2023-02-28T15:44:37;12.00;;;6.40;;
3347;SDS011;1687;49.540;8.574;2023-02-28T15:47:07;10.80;;;6.67;;
3347;SDS011;1687;49.540;8.574;2023-02-28T15:49:53;13.97;;;6.67;;
3347;SDS011;1687;49.540;8.574;2023-02-28T15:52:39;13.30;;;6.57;;
3347;SDS011;1687;49.540;8.574;2023-02-28T15:55:17;12.87;;;7.57;;
3347;SDS011;1687;49.540;8.574;2023-02-28T15:57:50;16.20;;;7.43;;
3347;SDS011;1687;49.540;8.574;2023-02-28T16:00:20;13.40;;;6.57;;
3347;SDS011;1687;49.540;8.574;2023-02-28T16:02:49;19.00;;;7.47;;
3347;SDS011;1687;49.540;8.574;2023-02-28T16:05:23;11.40;;;5.83;;
3347;SDS011;1687;49.540;8.574;2023-02-28T16:08:17;16.57;;;6.73;;
3347;SDS011;1687;49.540;8.574;2023-02-28T16:10:42;10.77;;;6.30;;
3347;SDS011;1687;49.540;8.574;2023-02-28T16:13:11;14.90;;;6.37;;
3347;SDS011;1687;49.540;8.574;2023-02-28T16:15:41;14.63;;;6.90;;
3347;SDS011;1687;49.540;8.574;2023-02-28T16:18:08;14.30;;;6.67;;
3347;SDS011;1687;49.540;8.574;2023-02-28T16:20:36;16.60;;;6.47;;
3347;SDS011;1687;49.540;8.574;2023-02-28T16:23:02;12.23;;;6.23;;
3347;SDS011;1687;49.540;8.574;2023-02-28T16:25:35;17.23;;;5.60;;
3347;SDS011;1687;49.540;8.574;2023-02-28T16:28:04;17.90;;;7.40;;
3347;SDS011;1687;49.540;8.574;2023-02-28T16:30:41;14.07;;;5.97;;
3347;SDS011;1687;49.540;8.574;2023-02-28T16:33:07;11.20;;;5.07;;
3347;SDS011;1687;49.540;8.574;2023-02-28T16:35:33;14.93;;;6.43;;
3347;SDS011;1687;49.540;8.574;2023-02-28T16:37:59;14.20;;;5.97;;
3347;SDS011;1687;49.540;8.574;2023-02-28T16:40:25;16.00;;;5.40;;
3347;SDS011;1687;49.540;8.574;2023-02-28T16:42:53;12.03;;;5.73;;
3347;SDS011;1687;49.540;8.574;2023-02-28T16:45:27;10.53;;;5.83;;
3347;SDS011;1687;49.540;8.574;2023-02-28T16:47:54;10.20;;;4.53;;
3347;SDS011;1687;49.540;8.574;2023-02-28T16:50:21;15.60;;;6.17;;
3347;SDS011;1687;49.540;8.574;2023-02-28T16:52:53;11.80;;;4.50;;
3347;SDS011;1687;49.540;8.574;2023-02-28T16:55:20;15.87;;;6.30;;
3347;SDS011;1687;49.540;8.574;2023-02-28T16:57:49;11.47;;;4.83;;
3347;SDS011;1687;49.540;8.574;2023-02-28T17:00:18;11.80;;;5.53;;
3347;SDS011;1687;49.540;8.574;2023-02-28T17:02:44;19.30;;;6.27;;
3347;SDS011;1687;49.540;8.574;2023-02-28T17:05:13;13.67;;;5.00;;
3347;SDS011;1687;49.540;8.574;2023-02-28T17:07:40;10.27;;;5.13;;
3347;SDS011;1687;49.540;8.574;2023-02-28T17:10:10;17.80;;;6.20;;
3347;SDS011;1687;49.540;8.574;2023-02-28T17:12:48;19.97;;;5.67;;
3347;SDS011;1687;49.540;8.574;2023-02-28T17:15:15;9.20;;;5.77;;
3347;SDS011;1687;49.540;8.574;2023-02-28T17:17:43;14.00;;;6.10;;
3347;SDS011;1687;49.540;8.574;2023-02-28T17:20:13;12.37;;;6.90;;
3347;SDS011;1687;49.540;8.574;2023-02-28T17:22:42;11.40;;;6.20;;
3347;SDS011;1687;49.540;8.574;2023-02-28T17:25:08;13.33;;;4.93;;
3347;SDS011;1687;49.540;8.574;2023-02-28T17:27:35;16.20;;;5.63;;
3347;SDS011;1687;49.540;8.574;2023-02-28T17:30:03;18.27;;;5.20;;
3347;SDS011;1687;49.540;8.574;2023-02-28T17:32:52;18.13;;;6.83;;
3347;SDS011;1687;49.540;8.574;2023-02-28T17:35:21;14.53;;;6.07;;
3347;SDS011;1687;49.540;8.574;2023-02-28T17:37:48;22.80;;;6.40;;
3347;SDS011;1687;49.540;8.574;2023-02-28T17:40:14;13.93;;;5.90;;
3347;SDS011;1687;49.540;8.574;2023-02-28T17:42:44;23.37;;;7.00;;
3347;SDS011;1687;49.540;8.574;2023-02-28T17:45:10;11.33;;;7.30;;
3347;SDS011;1687;49.540;8.574;2023-02-28T17:47:36;21.57;;;7.10;;
3347;SDS011;1687;49.540;8.574;2023-02-28T17:50:03;13.53;;;7.73;;
3347;SDS011;1687;49.540;8.574;2023-02-28T17:52:29;37.17;;;16.30;;
3347;SDS011;1687;49.540;8.574;2023-02-28T17:54:55;41.03;;;16.80;;
3347;SDS011;1687;49.540;8.574;2023-02-28T17:57:21;32.70;;;14.30;;
3347;SDS011;1687;49.540;8.574;2023-02-28T17:59:47;86.97;;;15.90;;
3347;SDS011;1687;49.540;8.574;2023-02-28T18:02:13;29.60;;;14.57;;